sensor_id;sensor_type;location;lat;lon;timestamp;P1;durP1;ratioP1;P2;durP2;ratioP2
63193;SDS011;49289;51.670;5.624;2022-09-24T00:01:42;25.70;;;17.10;;
63193;SDS011;49289;51.670;5.624;2022-09-24T00:03:29;23.70;;;17.00;;
63193;SDS011;49289;51.670;5.624;2022-09-24T00:05:16;23.70;;;17.30;;
63193;SDS011;49289;51.670;5.624;2022-09-24T00:07:03;25.70;;;16.90;;
63193;SDS011;49289;51.670;5.624;2022-09-24T00:08:51;23.80;;;16.80;;
63193;SDS011;49289;51.670;5.624;2022-09-24T00:10:41;23.70;;;16.20;;
63193;SDS011;49289;51.670;5.624;2022-09-24T00:12:29;21.60;;;16.00;;
63193;SDS011;49289;51.670;5.624;2022-09-24T00:14:17;21.70;;;16.50;;
63193;SDS011;49289;51.670;5.624;2022-09-24T00:16:06;20.60;;;15.10;;
63193;SDS011;49289;51.670;5.624;2022-09-24T00:17:54;21.30;;;15.20;;
63193;SDS011;49289;51.670;5.624;2022-09-24T00:19:42;22.20;;;15.80;;
63193;SDS011;49289;51.670;5.624;2022-09-24T00:21:30;20.80;;;15.60;;
63193;SDS011;49289;51.670;5.624;2022-09-24T00:23:16;21.60;;;16.40;;
63193;SDS011;49289;51.670;5.624;2022-09-24T00:25:03;22.60;;;16.30;;
63193;SDS011;49289;51.670;5.624;2022-09-24T00:26:51;20.30;;;16.10;;
63193;SDS011;49289;51.670;5.624;2022-09-24T00:28:38;21.40;;;15.30;;
63193;SDS011;49289;51.670;5.624;2022-09-24T00:30:25;22.40;;;15.50;;
63193;SDS011;49289;51.670;5.624;2022-09-24T00:32:13;20.60;;;15.30;;
63193;SDS011;49289;51.670;5.624;2022-09-24T00:34:01;18.80;;;14.50;;
63193;SDS011;49289;51.670;5.624;2022-09-24T00:35:49;20.80;;;14.90;;
63193;SDS011;49289;51.670;5.624;2022-09-24T00:37:38;19.40;;;14.90;;
63193;SDS011;49289;51.670;5.624;2022-09-24T00:39:26;18.90;;;14.40;;
63193;SDS011;49289;51.670;5.624;2022-09-24T00:41:14;19.40;;;14.50;;
63193;SDS011;49289;51.670;5.624;2022-09-24T00:43:19;19.00;;;14.60;;
63193;SDS011;49289;51.670;5.624;2022-09-24T00:45:04;19.90;;;14.20;;
63193;SDS011;49289;51.670;5.624;2022-09-24T00:46:54;18.70;;;14.10;;
63193;SDS011;49289;51.670;5.624;2022-09-24T00:48:42;19.50;;;14.30;;
63193;SDS011;49289;51.670;5.624;2022-09-24T00:50:29;18.20;;;13.60;;
63193;SDS011;49289;51.670;5.624;2022-09-24T00:52:16;18.80;;;14.30;;
63193;SDS011;49289;51.670;5.624;2022-09-24T00:54:04;17.50;;;13.20;;
63193;SDS011;49289;51.670;5.624;2022-09-24T00:55:52;15.80;;;12.30;;
63193;SDS011;49289;51.670;5.624;2022-09-24T00:57:39;18.30;;;13.30;;
63193;SDS011;49289;51.670;5.624;2022-09-24T00:59:26;18.10;;;13.30;;
63193;SDS011;49289;51.670;5.624;2022-09-24T01:01:13;18.60;;;13.00;;
63193;SDS011;49289;51.670;5.624;2022-09-24T01:03:00;18.00;;;13.50;;
63193;SDS011;49289;51.670;5.624;2022-09-24T01:04:47;18.90;;;13.10;;
63193;SDS011;49289;51.670;5.624;2022-09-24T01:06:34;19.30;;;13.50;;
63193;SDS011;49289;51.670;5.624;2022-09-24T01:08:21;17.90;;;13.50;;
63193;SDS011;49289;51.670;5.624;2022-09-24T01:10:08;17.60;;;12.70;;
63193;SDS011;49289;51.670;5.624;2022-09-24T01:11:58;17.40;;;12.60;;
63193;SDS011;49289;51.670;5.624;2022-09-24T01:13:53;16.80;;;12.80;;
63193;SDS011;49289;51.670;5.624;2022-09-24T01:15:41;17.10;;;13.30;;
63193;SDS011;49289;51.670;5.624;2022-09-24T01:17:30;16.30;;;12.80;;
63193;SDS011;49289;51.670;5.624;2022-09-24T01:19:22;16.80;;;12.80;;
63193;SDS011;49289;51.670;5.624;2022-09-24T01:21:29;18.00;;;12.90;;
63193;SDS011;49289;51.670;5.624;2022-09-24T01:23:26;16.70;;;12.60;;
63193;SDS011;49289;51.670;5.624;2022-09-24T01:25:19;17.90;;;13.00;;
63193;SDS011;49289;51.670;5.624;2022-09-24T01:27:06;16.50;;;12.60;;
63193;SDS011;49289;51.670;5.624;2022-09-24T01:29:01;15.30;;;11.80;;
63193;SDS011;49289;51.670;5.624;2022-09-24T01:30:49;15.40;;;12.60;;
63193;SDS011;49289;51.670;5.624;2022-09-24T01:32:39;15.30;;;11.70;;
63193;SDS011;49289;51.670;5.624;2022-09-24T01:34:26;17.30;;;12.60;;
63193;SDS011;49289;51.670;5.624;2022-09-24T01:36:12;16.20;;;12.40;;
63193;SDS011;49289;51.670;5.624;2022-09-24T01:38:00;15.10;;;12.10;;
63193;SDS011;49289;51.670;5.624;2022-09-24T01:39:47;15.90;;;12.30;;
63193;SDS011;49289;51.670;5.624;2022-09-24T01:41:35;16.60;;;12.00;;
63193;SDS011;49289;51.670;5.624;2022-09-24T01:43:26;16.20;;;11.80;;
63193;SDS011;49289;51.670;5.624;2022-09-24T01:45:14;17.30;;;12.60;;
63193;SDS011;49289;51.670;5.624;2022-09-24T01:47:01;16.40;;;12.00;;
63193;SDS011;49289;51.670;5.624;2022-09-24T01:48:49;16.40;;;12.30;;
63193;SDS011;49289;51.670;5.624;2022-09-24T01:50:39;16.10;;;11.50;;
63193;SDS011;49289;51.670;5.624;2022-09-24T01:52:26;17.80;;;12.00;;
63193;SDS011;49289;51.670;5.624;2022-09-24T01:54:14;14.10;;;11.70;;
63193;SDS011;49289;51.670;5.624;2022-09-24T01:56:03;17.60;;;12.10;;
63193;SDS011;49289;51.670;5.624;2022-09-24T01:57:51;14.90;;;11.60;;
63193;SDS011;49289;51.670;5.624;2022-09-24T01:59:40;15.00;;;11.30;;
63193;SDS011;49289;51.670;5.624;2022-09-24T02:01:28;14.90;;;11.00;;
63193;SDS011;49289;51.670;5.624;2022-09-24T02:03:15;15.70;;;11.30;;
63193;SDS011;49289;51.670;5.624;2022-09-24T02:05:05;13.80;;;11.20;;
63193;SDS011;49289;51.670;5.624;2022-09-24T02:06:52;14.80;;;11.30;;
63193;SDS011;49289;51.670;5.624;2022-09-24T02:08:39;15.00;;;11.70;;
63193;SDS011;49289;51.670;5.624;2022-09-24T02:10:25;13.80;;;11.10;;
63193;SDS011;49289;51.670;5.624;2022-09-24T02:12:13;14.30;;;11.20;;
63193;SDS011;49289;51.670;5.624;2022-09-24T02:14:01;14.80;;;11.40;;
63193;SDS011;49289;51.670;5.624;2022-09-24T02:15:47;14.50;;;11.10;;
63193;SDS011;49289;51.670;5.624;2022-09-24T02:17:35;15.00;;;11.10;;
63193;SDS011;49289;51.670;5.624;2022-09-24T02:19:23;15.30;;;11.20;;
63193;SDS011;49289;51.670;5.624;2022-09-24T02:21:11;14.10;;;11.00;;
63193;SDS011;49289;51.670;5.624;2022-09-24T02:22:59;13.00;;;10.40;;
63193;SDS011;49289;51.670;5.624;2022-09-24T02:24:48;14.80;;;11.10;;
63193;SDS011;49289;51.670;5.624;2022-09-24T02:26:35;15.10;;;11.60;;
63193;SDS011;49289;51.670;5.624;2022-09-24T02:28:24;14.60;;;11.00;;
63193;SDS011;49289;51.670;5.624;2022-09-24T02:30:13;17.20;;;11.70;;
63193;SDS011;49289;51.670;5.624;2022-09-24T02:32:01;14.20;;;11.20;;
63193;SDS011;49289;51.670;5.624;2022-09-24T02:33:50;14.30;;;11.30;;
63193;SDS011;49289;51.670;5.624;2022-09-24T02:35:38;15.80;;;11.60;;
63193;SDS011;49289;51.670;5.624;2022-09-24T02:37:28;14.60;;;11.10;;
63193;SDS011;49289;51.670;5.624;2022-09-24T02:39:15;15.30;;;10.70;;
63193;SDS011;49289;51.670;5.624;2022-09-24T02:41:04;14.70;;;10.70;;
63193;SDS011;49289;51.670;5.624;2022-09-24T02:42:52;14.60;;;10.80;;
63193;SDS011;49289;51.670;5.624;2022-09-24T02:44:40;14.00;;;10.50;;
63193;SDS011;49289;51.670;5.624;2022-09-24T02:46:28;15.10;;;11.00;;
63193;SDS011;49289;51.670;5.624;2022-09-24T02:48:18;14.30;;;11.10;;
63193;SDS011;49289;51.670;5.624;2022-09-24T02:50:07;15.00;;;10.80;;
63193;SDS011;49289;51.670;5.624;2022-09-24T02:51:55;15.20;;;10.80;;
63193;SDS011;49289;51.670;5.624;2022-09-24T02:53:43;13.90;;;10.60;;
63193;SDS011;49289;51.670;5.624;2022-09-24T02:55:30;15.60;;;11.00;;
63193;SDS011;49289;51.670;5.624;2022-09-24T02:57:17;14.70;;;11.20;;
63193;SDS011;49289;51.670;5.624;2022-09-24T02:59:04;15.60;;;11.80;;
63193;SDS011;49289;51.670;5.624;2022-09-24T03:00:52;14.60;;;11.30;;
63193;SDS011;49289;51.670;5.624;2022-09-24T03:02:41;16.20;;;11.10;;
63193;SDS011;49289;51.670;5.624;2022-09-24T03:04:28;16.20;;;11.90;;
63193;SDS011;49289;51.670;5.624;2022-09-24T03:06:15;17.60;;;11.70;;
63193;SDS011;49289;51.670;5.624;2022-09-24T03:08:02;14.90;;;11.40;;
63193;SDS011;49289;51.670;5.624;2022-09-24T03:09:49;16.10;;;12.10;;
63193;SDS011;49289;51.670;5.624;2022-09-24T03:11:36;15.40;;;12.50;;
63193;SDS011;49289;51.670;5.624;2022-09-24T03:13:23;18.20;;;12.70;;
63193;SDS011;49289;51.670;5.624;2022-09-24T03:15:11;16.80;;;12.20;;
63193;SDS011;49289;51.670;5.624;2022-09-24T03:16:58;15.90;;;12.70;;
63193;SDS011;49289;51.670;5.624;2022-09-24T03:18:45;17.40;;;12.20;;
63193;SDS011;49289;51.670;5.624;2022-09-24T03:20:32;16.60;;;12.80;;
63193;SDS011;49289;51.670;5.624;2022-09-24T03:22:20;18.10;;;12.50;;
63193;SDS011;49289;51.670;5.624;2022-09-24T03:24:09;15.90;;;12.30;;
63193;SDS011;49289;51.670;5.624;2022-09-24T03:25:57;17.20;;;13.10;;
63193;SDS011;49289;51.670;5.624;2022-09-24T03:27:45;17.20;;;13.10;;
63193;SDS011;49289;51.670;5.624;2022-09-24T03:29:33;17.50;;;12.50;;
63193;SDS011;49289;51.670;5.624;2022-09-24T03:31:21;17.80;;;13.20;;
63193;SDS011;49289;51.670;5.624;2022-09-24T03:33:08;16.60;;;12.40;;
63193;SDS011;49289;51.670;5.624;2022-09-24T03:34:56;20.70;;;13.80;;
63193;SDS011;49289;51.670;5.624;2022-09-24T03:36:43;20.30;;;14.60;;
63193;SDS011;49289;51.670;5.624;2022-09-24T03:38:31;18.90;;;13.70;;
63193;SDS011;49289;51.670;5.624;2022-09-24T03:40:20;18.40;;;14.00;;
63193;SDS011;49289;51.670;5.624;2022-09-24T03:42:10;20.70;;;15.20;;
63193;SDS011;49289;51.670;5.624;2022-09-24T03:43:59;20.40;;;15.10;;
63193;SDS011;49289;51.670;5.624;2022-09-24T03:45:46;22.30;;;15.70;;
63193;SDS011;49289;51.670;5.624;2022-09-24T03:47:34;23.20;;;16.40;;
63193;SDS011;49289;51.670;5.624;2022-09-24T03:49:22;21.40;;;15.70;;
63193;SDS011;49289;51.670;5.624;2022-09-24T03:51:10;25.60;;;17.40;;
63193;SDS011;49289;51.670;5.624;2022-09-24T03:52:57;23.80;;;17.20;;
63193;SDS011;49289;51.670;5.624;2022-09-24T03:54:44;21.40;;;16.60;;
63193;SDS011;49289;51.670;5.624;2022-09-24T03:56:31;21.60;;;16.40;;
63193;SDS011;49289;51.670;5.624;2022-09-24T03:58:19;21.70;;;16.50;;
63193;SDS011;49289;51.670;5.624;2022-09-24T04:00:09;24.00;;;17.10;;
63193;SDS011;49289;51.670;5.624;2022-09-24T04:01:57;25.10;;;17.80;;
63193;SDS011;49289;51.670;5.624;2022-09-24T04:03:46;24.30;;;17.20;;
63193;SDS011;49289;51.670;5.624;2022-09-24T04:05:34;23.40;;;17.10;;
63193;SDS011;49289;51.670;5.624;2022-09-24T04:07:22;23.70;;;18.00;;
63193;SDS011;49289;51.670;5.624;2022-09-24T04:09:10;25.50;;;18.20;;
63193;SDS011;49289;51.670;5.624;2022-09-24T04:10:58;25.90;;;17.70;;
63193;SDS011;49289;51.670;5.624;2022-09-24T04:12:46;25.20;;;17.60;;
63193;SDS011;49289;51.670;5.624;2022-09-24T04:14:34;28.20;;;18.50;;
63193;SDS011;49289;51.670;5.624;2022-09-24T04:16:24;25.10;;;18.20;;
63193;SDS011;49289;51.670;5.624;2022-09-24T04:18:12;25.90;;;18.00;;
63193;SDS011;49289;51.670;5.624;2022-09-24T04:19:59;25.00;;;18.20;;
63193;SDS011;49289;51.670;5.624;2022-09-24T04:21:46;24.80;;;18.60;;
63193;SDS011;49289;51.670;5.624;2022-09-24T04:23:33;25.30;;;18.10;;
63193;SDS011;49289;51.670;5.624;2022-09-24T04:25:22;25.20;;;17.90;;
63193;SDS011;49289;51.670;5.624;2022-09-24T04:27:10;24.60;;;17.80;;
63193;SDS011;49289;51.670;5.624;2022-09-24T04:28:59;24.70;;;18.20;;
63193;SDS011;49289;51.670;5.624;2022-09-24T04:30:47;23.70;;;17.70;;
63193;SDS011;49289;51.670;5.624;2022-09-24T04:32:36;24.60;;;17.40;;
63193;SDS011;49289;51.670;5.624;2022-09-24T04:34:23;26.00;;;18.20;;
63193;SDS011;49289;51.670;5.624;2022-09-24T04:36:10;24.20;;;18.10;;
63193;SDS011;49289;51.670;5.624;2022-09-24T04:37:58;24.10;;;17.50;;
63193;SDS011;49289;51.670;5.624;2022-09-24T04:39:45;24.50;;;17.70;;
63193;SDS011;49289;51.670;5.624;2022-09-24T04:41:34;27.50;;;18.50;;
63193;SDS011;49289;51.670;5.624;2022-09-24T04:43:22;25.70;;;17.40;;
63193;SDS011;49289;51.670;5.624;2022-09-24T04:45:11;25.30;;;18.20;;
63193;SDS011;49289;51.670;5.624;2022-09-24T04:46:58;27.10;;;17.30;;
63193;SDS011;49289;51.670;5.624;2022-09-24T04:48:45;25.00;;;18.30;;
63193;SDS011;49289;51.670;5.624;2022-09-24T04:50:32;23.10;;;17.00;;
63193;SDS011;49289;51.670;5.624;2022-09-24T04:52:19;23.60;;;17.30;;
63193;SDS011;49289;51.670;5.624;2022-09-24T04:54:07;21.50;;;16.80;;
63193;SDS011;49289;51.670;5.624;2022-09-24T04:55:53;22.50;;;17.30;;
63193;SDS011;49289;51.670;5.624;2022-09-24T04:57:41;22.20;;;16.70;;
63193;SDS011;49289;51.670;5.624;2022-09-24T04:59:29;25.60;;;17.40;;
63193;SDS011;49289;51.670;5.624;2022-09-24T05:01:18;25.00;;;17.90;;
63193;SDS011;49289;51.670;5.624;2022-09-24T05:03:06;23.20;;;17.20;;
63193;SDS011;49289;51.670;5.624;2022-09-24T05:04:54;20.90;;;16.60;;
63193;SDS011;49289;51.670;5.624;2022-09-24T05:06:42;23.70;;;17.60;;
63193;SDS011;49289;51.670;5.624;2022-09-24T05:08:29;22.90;;;17.40;;
63193;SDS011;49289;51.670;5.624;2022-09-24T05:10:16;27.60;;;17.20;;
63193;SDS011;49289;51.670;5.624;2022-09-24T05:12:05;24.90;;;17.10;;
63193;SDS011;49289;51.670;5.624;2022-09-24T05:13:53;24.00;;;16.90;;
63193;SDS011;49289;51.670;5.624;2022-09-24T05:15:40;22.60;;;16.60;;
63193;SDS011;49289;51.670;5.624;2022-09-24T05:17:27;23.80;;;16.80;;
63193;SDS011;49289;51.670;5.624;2022-09-24T05:19:15;23.50;;;16.90;;
63193;SDS011;49289;51.670;5.624;2022-09-24T05:21:02;20.90;;;16.60;;
63193;SDS011;49289;51.670;5.624;2022-09-24T05:22:51;23.30;;;16.20;;
63193;SDS011;49289;51.670;5.624;2022-09-24T05:24:39;24.60;;;17.00;;
63193;SDS011;49289;51.670;5.624;2022-09-24T05:26:28;22.90;;;16.40;;
63193;SDS011;49289;51.670;5.624;2022-09-24T05:28:17;26.80;;;17.70;;
63193;SDS011;49289;51.670;5.624;2022-09-24T05:30:04;24.60;;;17.30;;
63193;SDS011;49289;51.670;5.624;2022-09-24T05:31:53;24.50;;;17.40;;
63193;SDS011;49289;51.670;5.624;2022-09-24T05:33:41;24.40;;;17.40;;
63193;SDS011;49289;51.670;5.624;2022-09-24T05:35:28;24.30;;;17.00;;
63193;SDS011;49289;51.670;5.624;2022-09-24T05:37:15;23.80;;;17.70;;
63193;SDS011;49289;51.670;5.624;2022-09-24T05:39:02;25.00;;;17.20;;
63193;SDS011;49289;51.670;5.624;2022-09-24T05:40:49;22.80;;;16.90;;
63193;SDS011;49289;51.670;5.624;2022-09-24T05:42:37;23.80;;;17.60;;
63193;SDS011;49289;51.670;5.624;2022-09-24T05:44:25;26.30;;;17.30;;
63193;SDS011;49289;51.670;5.624;2022-09-24T05:46:13;25.40;;;17.40;;
63193;SDS011;49289;51.670;5.624;2022-09-24T05:48:01;22.20;;;16.40;;
63193;SDS011;49289;51.670;5.624;2022-09-24T05:49:49;23.60;;;17.10;;
63193;SDS011;49289;51.670;5.624;2022-09-24T05:51:38;24.20;;;17.30;;
63193;SDS011;49289;51.670;5.624;2022-09-24T05:53:26;22.60;;;15.40;;
63193;SDS011;49289;51.670;5.624;2022-09-24T05:55:14;22.00;;;15.90;;
63193;SDS011;49289;51.670;5.624;2022-09-24T05:57:01;25.10;;;16.80;;
63193;SDS011;49289;51.670;5.624;2022-09-24T05:58:48;21.60;;;15.30;;
63193;SDS011;49289;51.670;5.624;2022-09-24T06:00:35;22.10;;;16.00;;
63193;SDS011;49289;51.670;5.624;2022-09-24T06:02:22;20.20;;;14.90;;
63193;SDS011;49289;51.670;5.624;2022-09-24T06:04:10;20.50;;;15.20;;
63193;SDS011;49289;51.670;5.624;2022-09-24T06:05:59;22.20;;;15.70;;
63193;SDS011;49289;51.670;5.624;2022-09-24T06:07:47;20.20;;;15.20;;
63193;SDS011;49289;51.670;5.624;2022-09-24T06:09:35;21.10;;;14.90;;
63193;SDS011;49289;51.670;5.624;2022-09-24T06:11:23;21.20;;;15.30;;
63193;SDS011;49289;51.670;5.624;2022-09-24T06:13:11;20.60;;;15.30;;
63193;SDS011;49289;51.670;5.624;2022-09-24T06:14:59;20.80;;;14.90;;
63193;SDS011;49289;51.670;5.624;2022-09-24T06:16:31;21.20;;;14.40;;
63193;SDS011;49289;51.670;5.624;2022-09-24T06:18:18;22.00;;;15.30;;
63193;SDS011;49289;51.670;5.624;2022-09-24T06:20:05;20.10;;;14.90;;
63193;SDS011;49289;51.670;5.624;2022-09-24T06:21:54;21.40;;;15.70;;
63193;SDS011;49289;51.670;5.624;2022-09-24T06:23:42;19.90;;;14.50;;
63193;SDS011;49289;51.670;5.624;2022-09-24T06:25:30;19.70;;;14.10;;
63193;SDS011;49289;51.670;5.624;2022-09-24T06:27:18;20.10;;;14.20;;
63193;SDS011;49289;51.670;5.624;2022-09-24T06:29:06;21.40;;;15.50;;
63193;SDS011;49289;51.670;5.624;2022-09-24T06:30:53;21.50;;;15.30;;
63193;SDS011;49289;51.670;5.624;2022-09-24T06:32:40;19.30;;;14.10;;
63193;SDS011;49289;51.670;5.624;2022-09-24T06:34:27;19.50;;;14.60;;
63193;SDS011;49289;51.670;5.624;2022-09-24T06:36:00;20.60;;;14.60;;
63193;SDS011;49289;51.670;5.624;2022-09-24T06:37:33;20.70;;;14.20;;
63193;SDS011;49289;51.670;5.624;2022-09-24T06:39:20;19.70;;;14.20;;
63193;SDS011;49289;51.670;5.624;2022-09-24T06:41:07;19.90;;;13.80;;
63193;SDS011;49289;51.670;5.624;2022-09-24T06:42:55;20.60;;;14.30;;
63193;SDS011;49289;51.670;5.624;2022-09-24T06:44:43;18.70;;;14.10;;
63193;SDS011;49289;51.670;5.624;2022-09-24T06:46:32;20.00;;;14.70;;
63193;SDS011;49289;51.670;5.624;2022-09-24T06:48:20;18.50;;;14.00;;
63193;SDS011;49289;51.670;5.624;2022-09-24T06:50:08;19.70;;;14.50;;
63193;SDS011;49289;51.670;5.624;2022-09-24T06:51:58;18.60;;;13.70;;
63193;SDS011;49289;51.670;5.624;2022-09-24T06:53:45;18.00;;;13.50;;
63193;SDS011;49289;51.670;5.624;2022-09-24T06:55:35;17.00;;;13.20;;
63193;SDS011;49289;51.670;5.624;2022-09-24T06:57:22;16.90;;;13.20;;
63193;SDS011;49289;51.670;5.624;2022-09-24T06:59:10;20.60;;;13.90;;
63193;SDS011;49289;51.670;5.624;2022-09-24T07:00:59;21.80;;;14.00;;
63193;SDS011;49289;51.670;5.624;2022-09-24T07:02:49;17.20;;;12.70;;
63193;SDS011;49289;51.670;5.624;2022-09-24T07:04:36;18.90;;;13.50;;
63193;SDS011;49289;51.670;5.624;2022-09-24T07:06:25;18.40;;;12.90;;
63193;SDS011;49289;51.670;5.624;2022-09-24T07:08:13;18.80;;;13.70;;
63193;SDS011;49289;51.670;5.624;2022-09-24T07:10:02;20.30;;;14.10;;
63193;SDS011;49289;51.670;5.624;2022-09-24T07:11:48;19.20;;;13.20;;
63193;SDS011;49289;51.670;5.624;2022-09-24T07:13:35;20.30;;;14.10;;
63193;SDS011;49289;51.670;5.624;2022-09-24T07:15:23;19.90;;;14.30;;
63193;SDS011;49289;51.670;5.624;2022-09-24T07:17:11;19.70;;;14.30;;
63193;SDS011;49289;51.670;5.624;2022-09-24T07:19:00;20.20;;;13.60;;
63193;SDS011;49289;51.670;5.624;2022-09-24T07:20:49;20.00;;;13.70;;
63193;SDS011;49289;51.670;5.624;2022-09-24T07:22:41;20.00;;;14.60;;
63193;SDS011;49289;51.670;5.624;2022-09-24T07:24:29;20.90;;;13.90;;
63193;SDS011;49289;51.670;5.624;2022-09-24T07:26:18;20.60;;;15.00;;
63193;SDS011;49289;51.670;5.624;2022-09-24T07:28:08;20.20;;;14.40;;
63193;SDS011;49289;51.670;5.624;2022-09-24T07:29:54;21.30;;;13.90;;
63193;SDS011;49289;51.670;5.624;2022-09-24T07:31:42;19.80;;;14.30;;
63193;SDS011;49289;51.670;5.624;2022-09-24T07:33:31;19.30;;;14.60;;
63193;SDS011;49289;51.670;5.624;2022-09-24T07:35:19;20.40;;;14.40;;
63193;SDS011;49289;51.670;5.624;2022-09-24T07:37:06;21.00;;;14.70;;
63193;SDS011;49289;51.670;5.624;2022-09-24T07:38:53;20.20;;;14.30;;
63193;SDS011;49289;51.670;5.624;2022-09-24T07:40:40;20.30;;;14.40;;
63193;SDS011;49289;51.670;5.624;2022-09-24T07:42:29;19.90;;;13.80;;
63193;SDS011;49289;51.670;5.624;2022-09-24T07:44:17;19.00;;;14.70;;
63193;SDS011;49289;51.670;5.624;2022-09-24T07:46:05;18.30;;;14.50;;
63193;SDS011;49289;51.670;5.624;2022-09-24T07:47:55;21.00;;;14.60;;
63193;SDS011;49289;51.670;5.624;2022-09-24T07:49:43;24.10;;;15.60;;
63193;SDS011;49289;51.670;5.624;2022-09-24T07:51:32;20.90;;;15.00;;
63193;SDS011;49289;51.670;5.624;2022-09-24T07:53:20;20.80;;;15.10;;
63193;SDS011;49289;51.670;5.624;2022-09-24T07:55:08;23.60;;;15.90;;
63193;SDS011;49289;51.670;5.624;2022-09-24T07:56:56;23.90;;;15.50;;
63193;SDS011;49289;51.670;5.624;2022-09-24T07:58:45;21.70;;;15.90;;
63193;SDS011;49289;51.670;5.624;2022-09-24T08:00:34;21.20;;;16.50;;
63193;SDS011;49289;51.670;5.624;2022-09-24T08:02:22;21.30;;;16.00;;
63193;SDS011;49289;51.670;5.624;2022-09-24T08:04:10;21.20;;;15.80;;
63193;SDS011;49289;51.670;5.624;2022-09-24T08:05:57;20.40;;;15.90;;
63193;SDS011;49289;51.670;5.624;2022-09-24T08:07:48;21.80;;;16.20;;
63193;SDS011;49289;51.670;5.624;2022-09-24T08:09:35;22.10;;;16.60;;
63193;SDS011;49289;51.670;5.624;2022-09-24T08:11:22;23.10;;;16.10;;
63193;SDS011;49289;51.670;5.624;2022-09-24T08:13:10;21.10;;;16.10;;
63193;SDS011;49289;51.670;5.624;2022-09-24T08:14:59;23.80;;;17.80;;
63193;SDS011;49289;51.670;5.624;2022-09-24T08:16:47;24.80;;;17.60;;
63193;SDS011;49289;51.670;5.624;2022-09-24T08:18:34;23.70;;;17.10;;
63193;SDS011;49289;51.670;5.624;2022-09-24T08:20:21;23.40;;;16.80;;
63193;SDS011;49289;51.670;5.624;2022-09-24T08:22:08;22.40;;;16.80;;
63193;SDS011;49289;51.670;5.624;2022-09-24T08:23:56;25.30;;;17.10;;
63193;SDS011;49289;51.670;5.624;2022-09-24T08:25:45;22.40;;;16.30;;
63193;SDS011;49289;51.670;5.624;2022-09-24T08:27:33;23.20;;;16.80;;
63193;SDS011;49289;51.670;5.624;2022-09-24T08:29:21;22.00;;;16.90;;
63193;SDS011;49289;51.670;5.624;2022-09-24T08:31:09;23.80;;;16.00;;
63193;SDS011;49289;51.670;5.624;2022-09-24T08:32:55;24.00;;;17.70;;
63193;SDS011;49289;51.670;5.624;2022-09-24T08:34:42;23.50;;;17.10;;
63193;SDS011;49289;51.670;5.624;2022-09-24T08:36:30;23.00;;;16.10;;
63193;SDS011;49289;51.670;5.624;2022-09-24T08:38:19;21.20;;;16.30;;
63193;SDS011;49289;51.670;5.624;2022-09-24T08:40:08;23.20;;;16.20;;
63193;SDS011;49289;51.670;5.624;2022-09-24T08:41:58;22.00;;;16.50;;
63193;SDS011;49289;51.670;5.624;2022-09-24T08:43:50;23.10;;;16.50;;
63193;SDS011;49289;51.670;5.624;2022-09-24T08:45:38;23.30;;;16.40;;
63193;SDS011;49289;51.670;5.624;2022-09-24T08:47:27;20.90;;;16.30;;
63193;SDS011;49289;51.670;5.624;2022-09-24T08:49:16;23.30;;;16.90;;
63193;SDS011;49289;51.670;5.624;2022-09-24T08:51:06;22.10;;;16.40;;
63193;SDS011;49289;51.670;5.624;2022-09-24T08:53:00;23.90;;;16.80;;
63193;SDS011;49289;51.670;5.624;2022-09-24T08:54:49;23.60;;;17.30;;
63193;SDS011;49289;51.670;5.624;2022-09-24T08:56:36;23.60;;;16.90;;
63193;SDS011;49289;51.670;5.624;2022-09-24T08:58:28;22.60;;;16.80;;
63193;SDS011;49289;51.670;5.624;2022-09-24T09:00:18;22.40;;;17.10;;
63193;SDS011;49289;51.670;5.624;2022-09-24T09:02:19;24.60;;;17.30;;
63193;SDS011;49289;51.670;5.624;2022-09-24T09:04:12;23.90;;;17.40;;
63193;SDS011;49289;51.670;5.624;2022-09-24T09:05:58;23.00;;;17.80;;
63193;SDS011;49289;51.670;5.624;2022-09-24T09:07:48;23.40;;;17.20;;
63193;SDS011;49289;51.670;5.624;2022-09-24T09:09:37;24.60;;;17.80;;
63193;SDS011;49289;51.670;5.624;2022-09-24T09:11:28;24.10;;;17.70;;
63193;SDS011;49289;51.670;5.624;2022-09-24T09:13:16;23.70;;;16.70;;
63193;SDS011;49289;51.670;5.624;2022-09-24T09:15:03;25.10;;;17.20;;
63193;SDS011;49289;51.670;5.624;2022-09-24T09:16:52;23.50;;;17.50;;
63193;SDS011;49289;51.670;5.624;2022-09-24T09:18:41;24.60;;;18.20;;
63193;SDS011;49289;51.670;5.624;2022-09-24T09:20:29;26.20;;;18.40;;
63193;SDS011;49289;51.670;5.624;2022-09-24T09:22:15;28.10;;;19.20;;
63193;SDS011;49289;51.670;5.624;2022-09-24T09:24:02;26.20;;;18.00;;
63193;SDS011;49289;51.670;5.624;2022-09-24T09:25:51;25.80;;;17.90;;
63193;SDS011;49289;51.670;5.624;2022-09-24T09:27:39;25.40;;;18.30;;
63193;SDS011;49289;51.670;5.624;2022-09-24T09:29:27;24.50;;;17.90;;
63193;SDS011;49289;51.670;5.624;2022-09-24T09:31:18;24.10;;;17.70;;
63193;SDS011;49289;51.670;5.624;2022-09-24T09:33:09;24.20;;;17.10;;
63193;SDS011;49289;51.670;5.624;2022-09-24T09:35:00;23.20;;;17.00;;
63193;SDS011;49289;51.670;5.624;2022-09-24T09:36:49;23.30;;;16.60;;
63193;SDS011;49289;51.670;5.624;2022-09-24T09:38:40;24.60;;;17.50;;
63193;SDS011;49289;51.670;5.624;2022-09-24T09:40:31;22.80;;;17.00;;
63193;SDS011;49289;51.670;5.624;2022-09-24T09:42:24;23.90;;;17.40;;
63193;SDS011;49289;51.670;5.624;2022-09-24T09:44:15;23.10;;;17.20;;
63193;SDS011;49289;51.670;5.624;2022-09-24T09:46:04;25.40;;;16.50;;
63193;SDS011;49289;51.670;5.624;2022-09-24T09:47:51;22.90;;;17.80;;
63193;SDS011;49289;51.670;5.624;2022-09-24T09:49:39;22.90;;;16.90;;
63193;SDS011;49289;51.670;5.624;2022-09-24T09:51:27;22.80;;;17.00;;
63193;SDS011;49289;51.670;5.624;2022-09-24T09:53:23;22.50;;;16.80;;
63193;SDS011;49289;51.670;5.624;2022-09-24T09:55:18;24.30;;;17.30;;
63193;SDS011;49289;51.670;5.624;2022-09-24T09:57:04;22.70;;;17.00;;
63193;SDS011;49289;51.670;5.624;2022-09-24T09:58:59;24.50;;;17.10;;
63193;SDS011;49289;51.670;5.624;2022-09-24T10:00:47;23.40;;;17.60;;
63193;SDS011;49289;51.670;5.624;2022-09-24T10:02:34;23.30;;;17.10;;
63193;SDS011;49289;51.670;5.624;2022-09-24T10:04:27;23.80;;;17.20;;
63193;SDS011;49289;51.670;5.624;2022-09-24T10:06:22;21.50;;;16.10;;
63193;SDS011;49289;51.670;5.624;2022-09-24T10:08:24;22.30;;;16.70;;
63193;SDS011;49289;51.670;5.624;2022-09-24T10:10:19;22.90;;;17.00;;
63193;SDS011;49289;51.670;5.624;2022-09-24T10:12:13;21.90;;;15.80;;
63193;SDS011;49289;51.670;5.624;2022-09-24T10:14:08;22.60;;;16.80;;
63193;SDS011;49289;51.670;5.624;2022-09-24T10:15:55;19.70;;;15.40;;
63193;SDS011;49289;51.670;5.624;2022-09-24T10:17:43;19.70;;;15.80;;
63193;SDS011;49289;51.670;5.624;2022-09-24T10:19:30;22.70;;;16.50;;
63193;SDS011;49289;51.670;5.624;2022-09-24T10:21:30;22.20;;;15.30;;
63193;SDS011;49289;51.670;5.624;2022-09-24T10:23:11;21.60;;;16.00;;
63193;SDS011;49289;51.670;5.624;2022-09-24T10:24:57;20.70;;;15.60;;
63193;SDS011;49289;51.670;5.624;2022-09-24T10:26:44;23.50;;;16.20;;
63193;SDS011;49289;51.670;5.624;2022-09-24T10:28:31;22.30;;;16.10;;
63193;SDS011;49289;51.670;5.624;2022-09-24T10:30:20;22.60;;;16.00;;
63193;SDS011;49289;51.670;5.624;2022-09-24T10:32:13;21.10;;;15.80;;
63193;SDS011;49289;51.670;5.624;2022-09-24T10:33:59;18.90;;;14.90;;